Pebworth, Kentucky
Current Conditions -  °F | °C
As of 8:53 PM on Saturday 22 Nov 2014 (Local Time) from KJKL Reporting Station
Clear Clear  
Wind Chill: 51°   Ceiling: Unl
Heat Index: 51°   Visibility: 10mi
Dew Point: 28°   Wind: 5mph
Humidity: 41%   Direction: NA
Pressure: 30.15"   Gusts: NA
Location:  37.4818°N, 83.6652°W
Report Text: KJKL 230153Z AUTO VRB04KT 10SM CLR 11/M02 A3015 RMK AO2 SLP212 T01061022
Loading
Personal Weather Stations






























Interactive Weather Map New forecast layout! Learn more

10-Day Weather Forecast

Advertisements
Track Severe Weather on mobile